sensor_id;sensor_type;location;lat;lon;timestamp;noise_LAeq;noise_LA_min;noise_LA_max;noise_LA01;noise_LA95
66589;Laerm;53447;49.272;11.070;2022-10-18T00:00:27;42.08;35.19;49.22;;
66589;Laerm;53447;49.272;11.070;2022-10-18T00:02:52;40.65;35.82;43.26;;
66589;Laerm;53447;49.272;11.070;2022-10-18T00:05:18;42.05;37.84;44.41;;
66589;Laerm;53447;49.272;11.070;2022-10-18T00:07:43;47.09;36.55;64.96;;
66589;Laerm;53447;49.272;11.070;2022-10-18T00:10:08;40.00;36.20;43.40;;
66589;Laerm;53447;49.272;11.070;2022-10-18T00:12:34;40.10;34.16;44.47;;
66589;Laerm;53447;49.272;11.070;2022-10-18T00:14:59;43.21;39.56;51.45;;
66589;Laerm;53447;49.272;11.070;2022-10-18T00:17:24;42.18;38.93;55.25;;
66589;Laerm;53447;49.272;11.070;2022-10-18T00:19:50;41.20;37.45;44.01;;
66589;Laerm;53447;49.272;11.070;2022-10-18T00:22:15;40.69;37.02;42.53;;
66589;Laerm;53447;49.272;11.070;2022-10-18T00:24:40;40.72;37.17;49.83;;
66589;Laerm;53447;49.272;11.070;2022-10-18T00:27:06;41.98;37.96;49.18;;
66589;Laerm;53447;49.272;11.070;2022-10-18T00:29:31;42.13;39.12;44.10;;
66589;Laerm;53447;49.272;11.070;2022-10-18T00:31:56;41.78;37.96;45.78;;
66589;Laerm;53447;49.272;11.070;2022-10-18T00:34:21;41.56;37.45;45.64;;
66589;Laerm;53447;49.272;11.070;2022-10-18T00:36:46;40.94;36.55;45.12;;
66589;Laerm;53447;49.272;11.070;2022-10-18T00:39:16;40.70;36.87;42.61;;
66589;Laerm;53447;49.272;11.070;2022-10-18T00:41:42;40.33;36.20;42.27;;
66589;Laerm;53447;49.272;11.070;2022-10-18T00:46:45;41.64;36.87;44.60;;
66589;Laerm;53447;49.272;11.070;2022-10-18T00:51:43;41.37;37.58;42.97;;
66589;Laerm;53447;49.272;11.070;2022-10-18T00:54:09;41.41;37.84;43.19;;
66589;Laerm;53447;49.272;11.070;2022-10-18T00:56:35;40.71;37.02;42.65;;
66589;Laerm;53447;49.272;11.070;2022-10-18T00:59:00;41.48;37.31;44.36;;
66589;Laerm;53447;49.272;11.070;2022-10-18T01:01:25;40.80;37.58;42.81;;
66589;Laerm;53447;49.272;11.070;2022-10-18T01:03:51;40.54;36.87;43.26;;
66589;Laerm;53447;49.272;11.070;2022-10-18T01:06:17;41.51;37.96;43.51;;
66589;Laerm;53447;49.272;11.070;2022-10-18T01:11:40;47.54;38.42;63.65;;
66589;Laerm;53447;49.272;11.070;2022-10-18T01:19:46;42.21;35.19;47.62;;
66589;Laerm;53447;49.272;11.070;2022-10-18T01:22:12;39.76;35.41;41.99;;
66589;Laerm;53447;49.272;11.070;2022-10-18T01:25:26;40.95;36.55;44.33;;
66589;Laerm;53447;49.272;11.070;2022-10-18T01:27:33;40.94;36.02;44.47;;
66589;Laerm;53447;49.272;11.070;2022-10-18T01:32:30;40.39;35.82;43.30;;
66589;Laerm;53447;49.272;11.070;2022-10-18T01:34:59;40.48;36.20;45.30;;
66589;Laerm;53447;49.272;11.070;2022-10-18T01:37:27;40.34;35.82;43.08;;
66589;Laerm;53447;49.272;11.070;2022-10-18T01:39:54;47.78;37.58;64.66;;
66589;Laerm;53447;49.272;11.070;2022-10-18T01:42:21;39.81;34.95;47.28;;
66589;Laerm;53447;49.272;11.070;2022-10-18T01:44:47;39.49;34.95;42.22;;
66589;Laerm;53447;49.272;11.070;2022-10-18T01:47:14;39.54;34.44;42.04;;
66589;Laerm;53447;49.272;11.070;2022-10-18T01:49:40;39.39;34.70;41.99;;
66589;Laerm;53447;49.272;11.070;2022-10-18T01:52:05;39.40;34.95;42.69;;
66589;Laerm;53447;49.272;11.070;2022-10-18T01:54:36;41.58;35.82;44.95;;
66589;Laerm;53447;49.272;11.070;2022-10-18T01:57:04;40.87;37.37;43.26;;
66589;Laerm;53447;49.272;11.070;2022-10-18T02:02:29;42.97;37.31;55.52;;
66589;Laerm;53447;49.272;11.070;2022-10-18T02:10:19;42.23;36.20;48.23;;
66589;Laerm;53447;49.272;11.070;2022-10-18T02:12:45;41.80;36.55;46.48;;
66589;Laerm;53447;49.272;11.070;2022-10-18T02:15:11;41.16;37.02;44.04;;
66589;Laerm;53447;49.272;11.070;2022-10-18T02:17:38;40.12;35.62;42.85;;
66589;Laerm;53447;49.272;11.070;2022-10-18T02:20:04;39.69;35.19;43.04;;
66589;Laerm;53447;49.272;11.070;2022-10-18T02:22:31;40.32;36.02;42.89;;
66589;Laerm;53447;49.272;11.070;2022-10-18T02:24:57;42.65;37.84;44.98;;
66589;Laerm;53447;49.272;11.070;2022-10-18T02:27:23;40.40;36.38;42.65;;
66589;Laerm;53447;49.272;11.070;2022-10-18T02:29:49;40.43;35.19;43.37;;
66589;Laerm;53447;49.272;11.070;2022-10-18T02:32:16;40.77;36.71;42.89;;
66589;Laerm;53447;49.272;11.070;2022-10-18T02:34:45;40.45;36.38;42.77;;
66589;Laerm;53447;49.272;11.070;2022-10-18T02:37:11;43.71;36.71;52.50;;
66589;Laerm;53447;49.272;11.070;2022-10-18T02:39:44;41.57;37.31;44.65;;
66589;Laerm;53447;49.272;11.070;2022-10-18T02:42:10;42.10;37.84;44.73;;
66589;Laerm;53447;49.272;11.070;2022-10-18T02:44:37;41.45;37.02;50.64;;
66589;Laerm;53447;49.272;11.070;2022-10-18T02:47:03;40.08;36.02;42.49;;
66589;Laerm;53447;49.272;11.070;2022-10-18T02:49:28;40.42;36.55;47.20;;
66589;Laerm;53447;49.272;11.070;2022-10-18T02:51:53;42.56;38.08;50.63;;
66589;Laerm;53447;49.272;11.070;2022-10-18T02:54:19;41.00;36.71;43.26;;
66589;Laerm;53447;49.272;11.070;2022-10-18T02:56:44;41.24;37.45;43.40;;
66589;Laerm;53447;49.272;11.070;2022-10-18T02:59:09;44.16;38.53;49.88;;
66589;Laerm;53447;49.272;11.070;2022-10-18T03:01:35;42.51;37.84;46.76;;
66589;Laerm;53447;49.272;11.070;2022-10-18T03:04:00;41.15;37.17;43.89;;
66589;Laerm;53447;49.272;11.070;2022-10-18T03:06:26;50.36;36.55;69.61;;
66589;Laerm;53447;49.272;11.070;2022-10-18T03:08:51;41.24;36.20;42.99;;
66589;Laerm;53447;49.272;11.070;2022-10-18T03:11:16;42.20;38.73;44.68;;
66589;Laerm;53447;49.272;11.070;2022-10-18T03:13:41;41.43;38.08;43.04;;
66589;Laerm;53447;49.272;11.070;2022-10-18T03:16:06;41.80;38.31;43.47;;
66589;Laerm;53447;49.272;11.070;2022-10-18T03:18:32;42.23;40.03;43.70;;
66589;Laerm;53447;49.272;11.070;2022-10-18T03:20:57;44.49;40.32;63.46;;
66589;Laerm;53447;49.272;11.070;2022-10-18T03:23:22;46.43;40.11;64.42;;
66589;Laerm;53447;49.272;11.070;2022-10-18T03:25:47;42.37;40.85;43.77;;
66589;Laerm;53447;49.272;11.070;2022-10-18T03:28:13;42.30;40.66;43.61;;
66589;Laerm;53447;49.272;11.070;2022-10-18T03:30:38;42.40;40.18;44.04;;
66589;Laerm;53447;49.272;11.070;2022-10-18T03:33:04;42.51;40.44;48.95;;
66589;Laerm;53447;49.272;11.070;2022-10-18T03:35:29;42.69;40.39;44.65;;
66589;Laerm;53447;49.272;11.070;2022-10-18T03:37:54;43.36;39.96;51.88;;
66589;Laerm;53447;49.272;11.070;2022-10-18T03:40:19;42.89;40.53;51.12;;
66589;Laerm;53447;49.272;11.070;2022-10-18T03:42:45;42.24;39.64;43.92;;
66589;Laerm;53447;49.272;11.070;2022-10-18T03:45:10;42.17;39.21;44.60;;
66589;Laerm;53447;49.272;11.070;2022-10-18T03:47:35;42.41;39.56;46.92;;
66589;Laerm;53447;49.272;11.070;2022-10-18T03:50:00;48.08;39.72;65.67;;
66589;Laerm;53447;49.272;11.070;2022-10-18T03:52:26;42.48;40.11;43.95;;
66589;Laerm;53447;49.272;11.070;2022-10-18T03:54:51;42.49;39.72;50.74;;
66589;Laerm;53447;49.272;11.070;2022-10-18T03:57:16;42.75;40.85;48.54;;
66589;Laerm;53447;49.272;11.070;2022-10-18T03:59:41;47.18;39.88;62.30;;
66589;Laerm;53447;49.272;11.070;2022-10-18T04:02:07;48.02;39.72;58.60;;
66589;Laerm;53447;49.272;11.070;2022-10-18T04:04:32;42.97;39.96;50.00;;
66589;Laerm;53447;49.272;11.070;2022-10-18T04:06:57;44.79;40.66;58.94;;
66589;Laerm;53447;49.272;11.070;2022-10-18T04:09:23;42.40;40.03;47.10;;
66589;Laerm;53447;49.272;11.070;2022-10-18T04:11:51;41.92;39.21;52.50;;
66589;Laerm;53447;49.272;11.070;2022-10-18T04:14:16;42.13;39.48;43.47;;
66589;Laerm;53447;49.272;11.070;2022-10-18T04:16:41;51.36;39.72;70.72;;
66589;Laerm;53447;49.272;11.070;2022-10-18T04:19:07;42.42;39.80;45.47;;
66589;Laerm;53447;49.272;11.070;2022-10-18T04:21:32;42.70;40.59;46.36;;
66589;Laerm;53447;49.272;11.070;2022-10-18T04:23:57;42.45;40.39;43.89;;
66589;Laerm;53447;49.272;11.070;2022-10-18T04:26:23;50.75;40.59;69.63;;
66589;Laerm;53447;49.272;11.070;2022-10-18T04:28:48;43.00;41.43;45.48;;
66589;Laerm;53447;49.272;11.070;2022-10-18T04:31:13;42.77;40.91;45.90;;
66589;Laerm;53447;49.272;11.070;2022-10-18T04:33:38;42.47;40.72;43.98;;
66589;Laerm;53447;49.272;11.070;2022-10-18T04:36:04;43.74;41.03;56.62;;
66589;Laerm;53447;49.272;11.070;2022-10-18T04:38:29;49.35;40.66;65.25;;
66589;Laerm;53447;49.272;11.070;2022-10-18T04:40:54;42.53;40.85;43.86;;
66589;Laerm;53447;49.272;11.070;2022-10-18T04:43:19;49.26;40.79;67.49;;
66589;Laerm;53447;49.272;11.070;2022-10-18T04:45:45;48.35;41.15;65.45;;
66589;Laerm;53447;49.272;11.070;2022-10-18T04:48:10;42.77;40.66;47.64;;
66589;Laerm;53447;49.272;11.070;2022-10-18T04:50:35;42.85;41.32;45.64;;
66589;Laerm;53447;49.272;11.070;2022-10-18T04:53:01;42.76;40.46;45.58;;
66589;Laerm;53447;49.272;11.070;2022-10-18T04:55:26;48.49;41.59;65.86;;
66589;Laerm;53447;49.272;11.070;2022-10-18T04:57:51;55.82;41.26;76.36;;
66589;Laerm;53447;49.272;11.070;2022-10-18T05:00:17;50.37;41.15;68.73;;
66589;Laerm;53447;49.272;11.070;2022-10-18T05:02:42;50.85;40.85;64.93;;
66589;Laerm;53447;49.272;11.070;2022-10-18T05:05:07;49.33;41.38;69.82;;
66589;Laerm;53447;49.272;11.070;2022-10-18T05:07:32;48.32;41.54;64.63;;
66589;Laerm;53447;49.272;11.070;2022-10-18T05:09:58;44.24;41.29;59.77;;
66589;Laerm;53447;49.272;11.070;2022-10-18T05:12:23;50.68;41.32;68.02;;
66589;Laerm;53447;49.272;11.070;2022-10-18T05:14:48;43.36;40.97;50.22;;
66589;Laerm;53447;49.272;11.070;2022-10-18T05:17:14;43.11;40.66;59.15;;
66589;Laerm;53447;49.272;11.070;2022-10-18T05:19:39;42.67;41.03;46.81;;
66589;Laerm;53447;49.272;11.070;2022-10-18T05:22:04;45.48;39.80;71.03;;
66589;Laerm;53447;49.272;11.070;2022-10-18T05:24:29;50.39;40.97;67.89;;
66589;Laerm;53447;49.272;11.070;2022-10-18T05:26:55;51.55;41.09;69.58;;
66589;Laerm;53447;49.272;11.070;2022-10-18T05:29:20;52.51;41.21;68.17;;
66589;Laerm;53447;49.272;11.070;2022-10-18T05:31:46;51.11;41.45;61.27;;
66589;Laerm;53447;49.272;11.070;2022-10-18T05:34:12;52.46;41.69;62.69;;
66589;Laerm;53447;49.272;11.070;2022-10-18T05:36:37;55.21;42.85;67.28;;
66589;Laerm;53447;49.272;11.070;2022-10-18T05:39:02;54.01;41.43;70.25;;
66589;Laerm;53447;49.272;11.070;2022-10-18T05:41:29;50.07;41.38;65.65;;
66589;Laerm;53447;49.272;11.070;2022-10-18T05:43:54;52.53;41.64;69.09;;
66589;Laerm;53447;49.272;11.070;2022-10-18T05:46:19;53.20;40.66;70.47;;
66589;Laerm;53447;49.272;11.070;2022-10-18T05:48:48;46.81;40.97;60.65;;
66589;Laerm;53447;49.272;11.070;2022-10-18T05:51:13;48.10;40.66;64.95;;
66589;Laerm;53447;49.272;11.070;2022-10-18T05:53:38;47.48;41.08;63.19;;
66589;Laerm;53447;49.272;11.070;2022-10-18T05:56:04;51.24;41.15;69.28;;
66589;Laerm;53447;49.272;11.070;2022-10-18T05:58:30;54.10;40.53;69.04;;
66589;Laerm;53447;49.272;11.070;2022-10-18T06:00:59;50.99;40.25;66.99;;
66589;Laerm;53447;49.272;11.070;2022-10-18T06:03:25;49.76;41.08;71.59;;
66589;Laerm;53447;49.272;11.070;2022-10-18T06:05:51;53.55;41.09;68.29;;
66589;Laerm;53447;49.272;11.070;2022-10-18T06:08:16;47.48;41.19;61.30;;
66589;Laerm;53447;49.272;11.070;2022-10-18T06:10:42;47.62;40.97;61.57;;
66589;Laerm;53447;49.272;11.070;2022-10-18T06:13:07;50.63;40.79;67.45;;
66589;Laerm;53447;49.272;11.070;2022-10-18T06:15:32;53.73;44.93;74.47;;
66589;Laerm;53447;49.272;11.070;2022-10-18T06:17:57;49.45;40.25;66.83;;
66589;Laerm;53447;49.272;11.070;2022-10-18T06:20:23;52.50;40.53;70.91;;
66589;Laerm;53447;49.272;11.070;2022-10-18T06:22:50;45.79;40.46;67.30;;
66589;Laerm;53447;49.272;11.070;2022-10-18T06:25:15;49.41;40.66;64.20;;
66589;Laerm;53447;49.272;11.070;2022-10-18T06:27:40;48.09;40.53;66.25;;
66589;Laerm;53447;49.272;11.070;2022-10-18T06:30:06;45.91;40.32;66.82;;
66589;Laerm;53447;49.272;11.070;2022-10-18T06:32:31;44.04;40.46;59.57;;
66589;Laerm;53447;49.272;11.070;2022-10-18T06:34:57;53.39;40.66;70.31;;
66589;Laerm;53447;49.272;11.070;2022-10-18T06:37:22;49.47;40.79;67.12;;
66589;Laerm;53447;49.272;11.070;2022-10-18T06:39:47;53.99;40.91;70.39;;
66589;Laerm;53447;49.272;11.070;2022-10-18T06:42:12;44.00;39.30;55.79;;
66589;Laerm;53447;49.272;11.070;2022-10-18T06:44:37;43.21;40.72;54.39;;
66589;Laerm;53447;49.272;11.070;2022-10-18T06:47:03;42.84;40.46;50.49;;
66589;Laerm;53447;49.272;11.070;2022-10-18T06:49:28;51.21;40.91;68.13;;
66589;Laerm;53447;49.272;11.070;2022-10-18T06:51:53;44.58;40.53;59.32;;
66589;Laerm;53447;49.272;11.070;2022-10-18T06:54:19;51.09;40.72;69.20;;
66589;Laerm;53447;49.272;11.070;2022-10-18T06:56:44;52.92;40.32;72.26;;
66589;Laerm;53447;49.272;11.070;2022-10-18T06:59:09;44.15;40.18;61.28;;
66589;Laerm;53447;49.272;11.070;2022-10-18T07:01:34;47.44;41.09;62.09;;
66589;Laerm;53447;49.272;11.070;2022-10-18T07:04:00;53.88;40.97;70.73;;
66589;Laerm;53447;49.272;11.070;2022-10-18T07:06:25;55.24;39.80;69.38;;
66589;Laerm;53447;49.272;11.070;2022-10-18T07:08:50;45.38;40.79;59.94;;
66589;Laerm;53447;49.272;11.070;2022-10-18T07:11:17;51.10;39.96;65.76;;
66589;Laerm;53447;49.272;11.070;2022-10-18T07:13:43;50.33;39.56;68.42;;
66589;Laerm;53447;49.272;11.070;2022-10-18T07:16:10;43.12;39.72;57.52;;
66589;Laerm;53447;49.272;11.070;2022-10-18T07:18:36;46.08;39.48;70.45;;
66589;Laerm;53447;49.272;11.070;2022-10-18T07:21:03;44.87;40.91;57.67;;
66589;Laerm;53447;49.272;11.070;2022-10-18T07:23:30;47.65;40.46;63.12;;
66589;Laerm;53447;49.272;11.070;2022-10-18T07:25:55;42.76;39.96;58.18;;
66589;Laerm;53447;49.272;11.070;2022-10-18T07:28:21;42.56;39.96;54.46;;
66589;Laerm;53447;49.272;11.070;2022-10-18T07:30:46;50.89;40.25;67.21;;
66589;Laerm;53447;49.272;11.070;2022-10-18T07:33:11;49.88;39.48;66.54;;
66589;Laerm;53447;49.272;11.070;2022-10-18T07:35:36;45.82;39.03;60.28;;
66589;Laerm;53447;49.272;11.070;2022-10-18T07:38:01;51.86;40.79;67.51;;
66589;Laerm;53447;49.272;11.070;2022-10-18T07:40:27;52.27;40.46;71.02;;
66589;Laerm;53447;49.272;11.070;2022-10-18T07:42:52;44.80;40.11;65.07;;
66589;Laerm;53447;49.272;11.070;2022-10-18T07:45:17;44.25;39.80;60.71;;
66589;Laerm;53447;49.272;11.070;2022-10-18T07:47:42;53.36;39.21;72.61;;
66589;Laerm;53447;49.272;11.070;2022-10-18T07:50:08;50.32;40.25;68.60;;
66589;Laerm;53447;49.272;11.070;2022-10-18T07:52:33;42.56;39.48;60.84;;
66589;Laerm;53447;49.272;11.070;2022-10-18T07:54:58;42.84;39.03;53.72;;
66589;Laerm;53447;49.272;11.070;2022-10-18T07:57:23;49.70;39.30;68.81;;
66589;Laerm;53447;49.272;11.070;2022-10-18T07:59:49;44.71;39.72;65.88;;
66589;Laerm;53447;49.272;11.070;2022-10-18T08:02:20;51.79;39.56;71.24;;
66589;Laerm;53447;49.272;11.070;2022-10-18T08:04:45;44.85;40.25;65.35;;
66589;Laerm;53447;49.272;11.070;2022-10-18T08:07:10;42.32;39.72;53.66;;
66589;Laerm;53447;49.272;11.070;2022-10-18T08:09:36;45.63;38.73;67.15;;
66589;Laerm;53447;49.272;11.070;2022-10-18T08:12:02;50.22;39.48;66.64;;
66589;Laerm;53447;49.272;11.070;2022-10-18T08:14:27;52.36;40.66;66.66;;
66589;Laerm;53447;49.272;11.070;2022-10-18T08:16:54;41.96;39.21;51.46;;
66589;Laerm;53447;49.272;11.070;2022-10-18T08:19:19;42.16;38.83;51.72;;
66589;Laerm;53447;49.272;11.070;2022-10-18T08:21:44;49.37;39.21;67.96;;
66589;Laerm;53447;49.272;11.070;2022-10-18T08:24:09;44.01;39.64;58.41;;
66589;Laerm;53447;49.272;11.070;2022-10-18T08:26:35;53.60;41.15;76.70;;
66589;Laerm;53447;49.272;11.070;2022-10-18T08:29:00;45.81;39.48;66.37;;
66589;Laerm;53447;49.272;11.070;2022-10-18T08:31:25;43.11;39.48;58.80;;
66589;Laerm;53447;49.272;11.070;2022-10-18T08:33:50;43.17;38.73;60.92;;
66589;Laerm;53447;49.272;11.070;2022-10-18T08:36:16;41.96;37.17;56.50;;
66589;Laerm;53447;49.272;11.070;2022-10-18T08:38:42;53.71;37.31;70.33;;
66589;Laerm;53447;49.272;11.070;2022-10-18T08:41:22;42.90;39.39;51.05;;
66589;Laerm;53447;49.272;11.070;2022-10-18T08:43:52;41.92;38.83;54.01;;
66589;Laerm;53447;49.272;11.070;2022-10-18T08:46:20;50.65;39.30;69.49;;
66589;Laerm;53447;49.272;11.070;2022-10-18T08:48:49;47.71;38.39;77.22;;
66589;Laerm;53447;49.272;11.070;2022-10-18T08:51:37;48.34;37.84;74.47;;
66589;Laerm;53447;49.272;11.070;2022-10-18T08:54:02;45.97;38.73;73.41;;
66589;Laerm;53447;49.272;11.070;2022-10-18T08:56:30;42.24;38.20;62.79;;
66589;Laerm;53447;49.272;11.070;2022-10-18T08:58:56;42.61;38.63;57.82;;
66589;Laerm;53447;49.272;11.070;2022-10-18T09:01:34;42.46;39.21;65.17;;
66589;Laerm;53447;49.272;11.070;2022-10-18T09:11:50;42.43;36.71;54.24;;
66589;Laerm;53447;49.272;11.070;2022-10-18T09:19:49;49.21;37.17;71.17;;
66589;Laerm;53447;49.272;11.070;2022-10-18T09:22:19;42.55;38.08;56.83;;
66589;Laerm;53447;49.272;11.070;2022-10-18T09:27:34;45.58;36.02;62.38;;
66589;Laerm;53447;49.272;11.070;2022-10-18T09:32:47;48.00;36.38;67.00;;
66589;Laerm;53447;49.272;11.070;2022-10-18T09:35:15;41.08;35.19;57.17;;
66589;Laerm;53447;49.272;11.070;2022-10-18T09:37:42;51.91;37.96;66.46;;
66589;Laerm;53447;49.272;11.070;2022-10-18T09:42:46;43.13;36.38;67.85;;
66589;Laerm;53447;49.272;11.070;2022-10-18T09:47:44;51.79;38.08;70.67;;
66589;Laerm;53447;49.272;11.070;2022-10-18T09:50:16;42.37;36.20;62.81;;
66589;Laerm;53447;49.272;11.070;2022-10-18T09:52:48;42.21;37.17;56.31;;
66589;Laerm;53447;49.272;11.070;2022-10-18T09:55:37;41.15;36.38;62.10;;
66589;Laerm;53447;49.272;11.070;2022-10-18T09:58:01;52.92;36.87;69.01;;
66589;Laerm;53447;49.272;11.070;2022-10-18T10:00:33;50.70;37.17;68.89;;
66589;Laerm;53447;49.272;11.070;2022-10-18T10:03:04;45.68;39.56;63.65;;
66589;Laerm;53447;49.272;11.070;2022-10-18T10:05:31;43.68;37.84;53.97;;
66589;Laerm;53447;49.272;11.070;2022-10-18T10:07:57;42.27;37.17;55.52;;
66589;Laerm;53447;49.272;11.070;2022-10-18T10:10:24;40.54;35.41;51.38;;
66589;Laerm;53447;49.272;11.070;2022-10-18T10:15:34;53.29;37.96;69.49;;
66589;Laerm;53447;49.272;11.070;2022-10-18T10:18:01;44.12;37.58;65.52;;
66589;Laerm;53447;49.272;11.070;2022-10-18T10:23:11;42.84;37.96;54.96;;
66589;Laerm;53447;49.272;11.070;2022-10-18T10:25:38;42.12;36.87;56.35;;
66589;Laerm;53447;49.272;11.070;2022-10-18T10:28:15;40.26;35.19;50.97;;
66589;Laerm;53447;49.272;11.070;2022-10-18T10:30:42;40.54;35.62;63.03;;
66589;Laerm;53447;49.272;11.070;2022-10-18T10:33:31;40.22;35.82;55.85;;
66589;Laerm;53447;49.272;11.070;2022-10-18T10:35:57;43.18;35.62;61.93;;
66589;Laerm;53447;49.272;11.070;2022-10-18T10:38:25;54.62;36.55;71.49;;
66589;Laerm;53447;49.272;11.070;2022-10-18T10:40:52;50.91;36.20;69.57;;
66589;Laerm;53447;49.272;11.070;2022-10-18T10:43:20;41.98;35.62;55.20;;
66589;Laerm;53447;49.272;11.070;2022-10-18T10:45:59;42.96;34.95;65.61;;
66589;Laerm;53447;49.272;11.070;2022-10-18T10:48:25;50.49;36.38;69.33;;
66589;Laerm;53447;49.272;11.070;2022-10-18T10:50:55;52.31;36.87;71.12;;
66589;Laerm;53447;49.272;11.070;2022-10-18T10:55:52;48.89;38.42;69.70;;
66589;Laerm;53447;49.272;11.070;2022-10-18T10:58:18;48.61;38.31;72.85;;
66589;Laerm;53447;49.272;11.070;2022-10-18T11:00:43;52.20;38.63;70.32;;
66589;Laerm;53447;49.272;11.070;2022-10-18T11:03:13;49.03;38.20;69.14;;
66589;Laerm;53447;49.272;11.070;2022-10-18T11:05:42;42.24;37.02;57.94;;
66589;Laerm;53447;49.272;11.070;2022-10-18T11:08:08;50.38;36.38;68.88;;
66589;Laerm;53447;49.272;11.070;2022-10-18T11:10:38;42.40;37.17;57.13;;
66589;Laerm;53447;49.272;11.070;2022-10-18T11:13:15;52.77;39.03;69.17;;
66589;Laerm;53447;49.272;11.070;2022-10-18T11:15:48;61.41;39.12;75.65;;
66589;Laerm;53447;49.272;11.070;2022-10-18T11:20:59;53.46;38.73;69.78;;
66589;Laerm;53447;49.272;11.070;2022-10-18T11:23:30;46.44;36.87;65.87;;
66589;Laerm;53447;49.272;11.070;2022-10-18T11:25:58;63.70;37.71;83.34;;
66589;Laerm;53447;49.272;11.070;2022-10-18T11:28:36;50.42;37.31;64.48;;
66589;Laerm;53447;49.272;11.070;2022-10-18T11:36:17;54.46;38.20;76.87;;
66589;Laerm;53447;49.272;11.070;2022-10-18T11:38:52;53.74;37.31;72.85;;
66589;Laerm;53447;49.272;11.070;2022-10-18T11:44:01;50.99;35.41;66.08;;
66589;Laerm;53447;49.272;11.070;2022-10-18T11:57:30;54.81;39.03;71.22;;
66589;Laerm;53447;49.272;11.070;2022-10-18T12:00:08;53.30;37.84;72.52;;
66589;Laerm;53447;49.272;11.070;2022-10-18T12:05:21;54.66;38.73;71.14;;
66589;Laerm;53447;49.272;11.070;2022-10-18T12:08:01;52.88;39.64;71.12;;
66589;Laerm;53447;49.272;11.070;2022-10-18T12:10:30;50.99;37.84;66.42;;
66589;Laerm;53447;49.272;11.070;2022-10-18T12:13:00;46.22;38.93;59.10;;
66589;Laerm;53447;49.272;11.070;2022-10-18T12:15:26;51.35;38.83;68.69;;
66589;Laerm;53447;49.272;11.070;2022-10-18T12:17:53;50.54;38.63;68.65;;
66589;Laerm;53447;49.272;11.070;2022-10-18T12:20:22;42.73;37.45;58.58;;
66589;Laerm;53447;49.272;11.070;2022-10-18T12:22:51;45.67;38.20;66.95;;
66589;Laerm;53447;49.272;11.070;2022-10-18T12:25:20;45.78;38.63;67.47;;
66589;Laerm;53447;49.272;11.070;2022-10-18T12:27:49;44.74;38.49;62.02;;
66589;Laerm;53447;49.272;11.070;2022-10-18T12:31:17;42.94;38.42;62.79;;
66589;Laerm;53447;49.272;11.070;2022-10-18T12:33:12;46.26;37.45;71.53;;
66589;Laerm;53447;49.272;11.070;2022-10-18T12:38:18;50.91;37.96;70.42;;
66589;Laerm;53447;49.272;11.070;2022-10-18T12:40:46;49.67;36.87;67.11;;
66589;Laerm;53447;49.272;11.070;2022-10-18T12:43:17;42.10;37.45;70.93;;
66589;Laerm;53447;49.272;11.070;2022-10-18T12:48:31;51.21;39.30;71.87;;
66589;Laerm;53447;49.272;11.070;2022-10-18T12:50:58;45.27;37.02;65.39;;
66589;Laerm;53447;49.272;11.070;2022-10-18T12:53:25;50.83;37.61;70.10;;
66589;Laerm;53447;49.272;11.070;2022-10-18T12:55:51;52.64;37.45;70.14;;
66589;Laerm;53447;49.272;11.070;2022-10-18T13:08:36;48.24;36.87;65.05;;
66589;Laerm;53447;49.272;11.070;2022-10-18T13:16:13;51.98;38.73;73.44;;
66589;Laerm;53447;49.272;11.070;2022-10-18T13:18:49;46.17;37.96;61.94;;
66589;Laerm;53447;49.272;11.070;2022-10-18T13:26:33;44.32;36.55;63.20;;
66589;Laerm;53447;49.272;11.070;2022-10-18T13:39:31;42.24;37.45;58.00;;
66589;Laerm;53447;49.272;11.070;2022-10-18T13:44:29;50.52;37.17;70.35;;
66589;Laerm;53447;49.272;11.070;2022-10-18T14:02:33;51.25;37.58;70.43;;
66589;Laerm;53447;49.272;11.070;2022-10-18T14:05:12;50.57;38.20;69.87;;
66589;Laerm;53447;49.272;11.070;2022-10-18T14:07:41;52.10;38.53;67.41;;
66589;Laerm;53447;49.272;11.070;2022-10-18T14:10:12;41.21;38.20;48.12;;
66589;Laerm;53447;49.272;11.070;2022-10-18T14:12:45;42.05;37.45;53.36;;
66589;Laerm;53447;49.272;11.070;2022-10-18T14:17:57;42.38;37.17;57.07;;
66589;Laerm;53447;49.272;11.070;2022-10-18T14:23:05;41.75;37.71;55.12;;
66589;Laerm;53447;49.272;11.070;2022-10-18T14:25:35;46.81;37.02;71.42;;
66589;Laerm;53447;49.272;11.070;2022-10-18T14:30:29;50.21;37.71;68.21;;
66589;Laerm;53447;49.272;11.070;2022-10-18T14:32:54;41.22;37.17;50.45;;
66589;Laerm;53447;49.272;11.070;2022-10-18T14:35:23;41.77;37.96;52.55;;
66589;Laerm;53447;49.272;11.070;2022-10-18T14:37:50;44.19;37.31;65.17;;
66589;Laerm;53447;49.272;11.070;2022-10-18T14:40:34;41.52;37.17;53.75;;
66589;Laerm;53447;49.272;11.070;2022-10-18T14:43:06;52.53;37.17;68.55;;
66589;Laerm;53447;49.272;11.070;2022-10-18T14:45:34;44.33;37.17;56.73;;
66589;Laerm;53447;49.272;11.070;2022-10-18T14:48:06;42.42;37.02;53.41;;
66589;Laerm;53447;49.272;11.070;2022-10-18T14:50:31;54.76;36.20;72.19;;
66589;Laerm;53447;49.272;11.070;2022-10-18T14:52:57;40.19;36.55;44.78;;
66589;Laerm;53447;49.272;11.070;2022-10-18T14:55:28;40.78;36.38;55.67;;
66589;Laerm;53447;49.272;11.070;2022-10-18T14:57:53;51.12;35.19;69.07;;
66589;Laerm;53447;49.272;11.070;2022-10-18T15:00:22;41.23;35.19;53.52;;
66589;Laerm;53447;49.272;11.070;2022-10-18T15:02:49;49.70;36.87;64.65;;
66589;Laerm;53447;49.272;11.070;2022-10-18T15:07:40;41.02;36.38;50.03;;
66589;Laerm;53447;49.272;11.070;2022-10-18T15:10:06;40.44;35.62;51.59;;
66589;Laerm;53447;49.272;11.070;2022-10-18T15:12:32;48.86;36.38;66.30;;
66589;Laerm;53447;49.272;11.070;2022-10-18T15:14:59;52.40;38.08;70.78;;
66589;Laerm;53447;49.272;11.070;2022-10-18T15:17:26;54.00;36.20;75.21;;
66589;Laerm;53447;49.272;11.070;2022-10-18T15:22:36;50.26;35.27;68.60;;
66589;Laerm;53447;49.272;11.070;2022-10-18T15:27:30;41.54;34.44;56.50;;
66589;Laerm;53447;49.272;11.070;2022-10-18T15:29:55;51.85;34.95;70.46;;
66589;Laerm;53447;49.272;11.070;2022-10-18T15:32:24;48.78;34.95;66.48;;
66589;Laerm;53447;49.272;11.070;2022-10-18T15:34:51;40.33;34.70;53.21;;
66589;Laerm;53447;49.272;11.070;2022-10-18T15:37:30;40.22;35.41;44.47;;
66589;Laerm;53447;49.272;11.070;2022-10-18T15:40:15;40.11;33.86;55.50;;
66589;Laerm;53447;49.272;11.070;2022-10-18T15:42:42;40.49;33.86;59.71;;
66589;Laerm;53447;49.272;11.070;2022-10-18T15:45:20;49.78;34.16;68.68;;
66589;Laerm;53447;49.272;11.070;2022-10-18T15:48:35;50.14;36.02;68.71;;
66589;Laerm;53447;49.272;11.070;2022-10-18T15:55:51;40.14;36.02;48.93;;
66589;Laerm;53447;49.272;11.070;2022-10-18T16:00:44;43.04;35.62;55.13;;
66589;Laerm;53447;49.272;11.070;2022-10-18T16:03:10;42.27;36.71;50.06;;
66589;Laerm;53447;49.272;11.070;2022-10-18T16:05:36;41.26;34.16;44.13;;
66589;Laerm;53447;49.272;11.070;2022-10-18T16:08:01;41.97;39.48;49.51;;
66589;Laerm;53447;49.272;11.070;2022-10-18T16:10:27;50.33;39.48;68.18;;